Time;durP1;ratioP1;P1;durP2;ratioP2;P2;SDS_P1;SDS_P2;PMS_P1;PMS_P2;Temp;Humidity;BMP_temperature;BMP_pressure;BME280_temperature;BME280_humidity;BME280_pressure;Samples;Min_cycle;Max_cycle;Signal;HPM_P1;HPM_P2
2022/08/07 00:00:32;;;;;;;3.92;2.67;;;;;;;10.84;100.00;102872.97;5115977;28;20099;-73
2022/08/07 00:02:58;;;;;;;2.58;2.33;;;;;;;10.86;100.00;102871.06;5114293;28;20049;-74
2022/08/07 00:05:24;;;;;;;3.58;2.75;;;;;;;10.86;100.00;102871.06;5116039;27;20141;-73
2022/08/07 00:07:50;;;;;;;4.45;2.80;;;;;;;10.88;100.00;102865.66;5115617;28;20032;-74
2022/08/07 00:10:16;;;;;;;3.25;2.28;;;;;;;10.88;100.00;102863.88;5115577;28;20473;-73
2022/08/07 00:12:42;;;;;;;3.47;2.65;;;;;;;10.88;100.00;102858.53;5114454;28;20168;-73
2022/08/07 00:15:09;;;;;;;6.60;3.03;;;;;;;10.85;100.00;102868.50;5115707;28;20035;-74
2022/08/07 00:17:34;;;;;;;2.70;2.50;;;;;;;10.82;100.00;102874.84;5115488;28;20096;-73
2022/08/07 00:20:00;;;;;;;4.45;2.67;;;;;;;10.78;100.00;102870.69;5116340;28;20516;-73
2022/08/07 00:22:25;;;;;;;5.13;3.28;;;;;;;10.74;100.00;102867.31;5115983;28;20032;-73
2022/08/07 00:24:50;;;;;;;4.68;3.50;;;;;;;10.79;100.00;102864.38;5115527;28;20035;-73
2022/08/07 00:27:16;;;;;;;3.53;2.75;;;;;;;10.81;100.00;102864.28;5115260;28;20036;-73
2022/08/07 00:29:42;;;;;;;6.78;3.00;;;;;;;10.80;100.00;102865.28;5115690;28;20358;-73
2022/08/07 00:32:07;;;;;;;3.83;2.95;;;;;;;10.74;100.00;102867.31;5115442;28;20092;-73
2022/08/07 00:34:33;;;;;;;4.47;2.83;;;;;;;10.71;100.00;102861.34;5113040;28;20118;-73
2022/08/07 00:36:58;;;;;;;3.97;3.03;;;;;;;10.70;100.00;102860.50;5114977;28;20032;-73
2022/08/07 00:39:23;;;;;;;5.15;2.65;;;;;;;10.69;100.00;102857.88;5115552;28;20055;-73
2022/08/07 00:41:50;;;;;;;5.32;2.72;;;;;;;10.66;100.00;102856.28;5113951;28;20020;-73
2022/08/07 00:44:15;;;;;;;4.35;2.53;;;;;;;10.63;100.00;102847.59;5115241;28;20038;-74
2022/08/07 00:46:41;;;;;;;4.25;2.75;;;;;;;10.56;100.00;102849.78;5115253;28;20114;-73
2022/08/07 00:49:08;;;;;;;3.47;2.63;;;;;;;10.49;100.00;102851.94;5115773;28;20055;-73
2022/08/07 00:51:34;;;;;;;3.63;2.90;;;;;;;10.46;100.00;102846.78;5113902;28;20119;-74
2022/08/07 00:53:59;;;;;;;4.45;3.00;;;;;;;10.49;100.00;102851.94;5114794;28;20055;-75
2022/08/07 00:56:24;;;;;;;3.97;3.20;;;;;;;10.48;100.00;102842.25;5114930;28;20393;-74
2022/08/07 00:58:50;;;;;;;4.35;2.70;;;;;;;10.45;100.00;102845.09;5115537;28;20210;-74
2022/08/07 01:01:16;;;;;;;4.82;3.20;;;;;;;10.40;100.00;102845.38;5115028;28;20060;-74
2022/08/07 01:03:42;;;;;;;3.05;2.78;;;;;;;10.37;100.00;102842.84;5115139;28;20036;-74
2022/08/07 01:06:08;;;;;;;3.60;2.75;;;;;;;10.39;100.00;102840.13;5114918;28;20031;-75
2022/08/07 01:08:33;;;;;;;4.47;3.08;;;;;;;10.38;100.00;102835.75;5114993;28;20066;-74
2022/08/07 01:10:59;;;;;;;4.95;3.00;;;;;;;10.31;100.00;102832.53;5114782;28;20119;-78
2022/08/07 01:13:25;;;;;;;3.38;2.85;;;;;;;10.27;100.00;102832.81;5114634;27;20062;-72
2022/08/07 01:15:51;;;;;;;3.42;2.80;;;;;;;10.21;100.00;102837.56;5114254;27;20069;-73
2022/08/07 01:18:17;;;;;;;4.60;2.70;;;;;;;10.19;100.00;102830.59;5114435;28;20027;-73
2022/08/07 01:20:47;;;;;;;4.45;3.53;;;;;;;10.20;100.00;102832.31;5114431;27;20031;-72
2022/08/07 01:23:13;;;;;;;4.68;2.95;;;;;;;10.17;100.00;102829.84;5114088;28;20038;-72
2022/08/07 01:25:39;;;;;;;4.05;2.83;;;;;;;10.13;100.00;102825.63;5114060;28;20461;-72
2022/08/07 01:28:05;;;;;;;4.80;3.20;;;;;;;10.17;100.00;102827.19;5114312;28;20024;-73
2022/08/07 01:30:31;;;;;;;5.38;3.60;;;;;;;10.16;100.00;102828.13;5114377;28;20319;-73
2022/08/07 01:32:57;;;;;;;5.68;3.50;;;;;;;10.16;100.00;102830.78;5114003;28;20028;-73
2022/08/07 01:35:23;;;;;;;12.70;3.28;;;;;;;10.15;100.00;102826.38;5114198;28;20028;-72
2022/08/07 01:37:48;;;;;;;4.28;3.38;;;;;;;10.10;100.00;102828.47;5114116;28;20024;-72
2022/08/07 01:40:19;;;;;;;3.28;2.97;;;;;;;10.06;100.00;102835.75;5113931;28;20059;-73
2022/08/07 01:42:44;;;;;;;2.90;2.60;;;;;;;10.01;100.00;102828.03;5114274;28;20028;-73
2022/08/07 01:45:10;;;;;;;3.90;2.63;;;;;;;10.00;100.00;102829.00;5113844;28;20115;-73
2022/08/07 01:47:35;;;;;;;5.93;3.88;;;;;;;10.04;100.00;102825.19;5114010;27;20031;-75
2022/08/07 01:50:01;;;;;;;5.65;3.42;;;;;;;10.04;100.00;102827.84;5113945;28;20366;-73
2022/08/07 01:52:30;;;;;;;4.93;3.78;;;;;;;10.01;100.00;102820.06;5113519;28;20042;-73
2022/08/07 01:54:57;;;;;;;4.10;3.33;;;;;;;10.00;100.00;102825.47;5114096;28;20027;-73
2022/08/07 01:57:27;;;;;;;4.47;3.75;;;;;;;9.97;100.00;102818.53;5113719;28;20072;-74
2022/08/07 02:00:01;;;;;;;4.20;3.13;;;;;;;9.95;100.00;102827.53;5113453;28;20110;-73
2022/08/07 02:02:30;;;;;;;3.85;3.10;;;;;;;9.91;100.00;102831.31;5113559;28;20038;-73
2022/08/07 02:05:01;;;;;;;4.25;2.97;;;;;;;9.89;100.00;102821.59;5114017;28;20365;-73
2022/08/07 02:07:32;;;;;;;5.22;3.63;;;;;;;9.89;100.00;102818.94;5113807;28;20058;-73
2022/08/07 02:10:00;;;;;;;8.75;3.80;;;;;;;9.88;100.00;102817.25;5113931;28;20118;-73
2022/08/07 02:12:30;;;;;;;5.35;4.07;;;;;;;9.87;100.00;102818.19;5113729;28;20031;-73
2022/08/07 02:14:57;;;;;;;5.03;3.78;;;;;;;9.84;100.00;102818.34;5113261;28;20059;-73
2022/08/07 02:17:24;;;;;;;4.35;3.35;;;;;;;9.81;100.00;102812.38;5113724;28;20163;-73
2022/08/07 02:19:52;;;;;;;5.60;4.40;;;;;;;9.84;100.00;102814.84;5113203;28;20044;-73
2022/08/07 02:22:18;;;;;;;4.72;4.03;;;;;;;9.85;100.00;102813.88;5113479;28;20093;-73
2022/08/07 02:24:45;;;;;;;4.65;3.67;;;;;;;9.82;100.00;102806.09;5113378;28;20035;-73
2022/08/07 02:27:14;;;;;;;6.50;3.70;;;;;;;9.81;100.00;102801.72;5112263;28;20023;-74
2022/08/07 02:29:40;;;;;;;6.38;4.32;;;;;;;9.80;100.00;102807.97;5113145;28;20469;-73
2022/08/07 02:32:09;;;;;;;5.68;3.97;;;;;;;9.78;100.00;102804.53;5113639;28;20034;-73
2022/08/07 02:34:37;;;;;;;6.03;3.72;;;;;;;9.78;100.00;102804.53;5112895;28;20469;-73
2022/08/07 02:37:05;;;;;;;7.88;4.40;;;;;;;9.76;100.00;102803.78;5113377;28;20032;-74
2022/08/07 02:39:32;;;;;;;4.90;4.15;;;;;;;9.79;100.00;102807.13;5113194;28;20434;-73
2022/08/07 02:41:58;;;;;;;5.35;3.92;;;;;;;9.78;100.00;102809.84;5113629;28;20051;-73
2022/08/07 02:44:26;;;;;;;6.95;4.20;;;;;;;9.79;100.00;102803.59;5111821;28;20361;-75
2022/08/07 02:46:53;;;;;;;4.50;3.67;;;;;;;9.80;100.00;102808.81;5113222;28;20035;-73
2022/08/07 02:49:19;;;;;;;4.88;4.18;;;;;;;9.82;100.00;102808.75;5113241;28;20075;-74
2022/08/07 02:51:47;;;;;;;3.40;3.10;;;;;;;9.78;100.00;102815.16;5113756;28;20425;-73
2022/08/07 02:54:15;;;;;;;2.92;2.63;;;;;;;9.70;100.00;102804.97;5113427;28;20097;-74
2022/08/07 02:56:42;;;;;;;3.47;3.08;;;;;;;9.67;100.00;102806.00;5113088;28;20032;-74
2022/08/07 02:59:10;;;;;;;3.40;2.80;;;;;;;9.65;100.00;102796.41;5117488;28;20035;-74
2022/08/07 03:01:41;;;;;;;5.75;3.80;;;;;;;9.65;100.00;102802.56;5117463;28;20377;-74
2022/08/07 03:04:08;;;;;;;5.60;3.20;;;;;;;9.66;100.00;102806.09;5117823;28;20035;-74
2022/08/07 03:06:35;;;;;;;3.63;2.78;;;;;;;9.64;100.00;102803.53;5117708;28;20080;-74
2022/08/07 03:09:06;;;;;;;4.53;2.95;;;;;;;9.59;100.00;102794.94;5116307;28;20035;-73
2022/08/07 03:11:33;;;;;;;3.22;2.80;;;;;;;9.56;100.00;102800.41;5117408;27;20035;-73
2022/08/07 03:14:01;;;;;;;2.90;2.60;;;;;;;9.50;100.00;102793.63;5117124;28;20077;-74
2022/08/07 03:16:27;;;;;;;5.25;3.05;;;;;;;9.48;100.00;102794.66;5117449;27;20116;-74
2022/08/07 03:18:53;;;;;;;3.88;2.92;;;;;;;9.49;100.00;102801.69;5116893;28;20383;-74
2022/08/07 03:21:18;;;;;;;4.05;3.00;;;;;;;9.48;100.00;102800.84;5117388;28;20023;-75
2022/08/07 03:23:45;;;;;;;3.90;3.50;;;;;;;9.55;100.00;102804.00;5116627;28;20040;-73
2022/08/07 03:26:17;;;;;;;4.63;3.63;;;;;;;9.56;100.00;102799.56;5116590;28;20039;-74
2022/08/07 03:28:43;;;;;;;3.72;2.80;;;;;;;9.51;100.00;102795.38;5116912;27;20035;-74
2022/08/07 03:31:19;;;;;;;4.60;3.50;;;;;;;9.53;100.00;102797.94;5117055;28;20032;-74
2022/08/07 03:34:06;;;;;;;3.90;3.50;;;;;;;9.52;100.00;102791.78;5116657;28;20034;-74
2022/08/07 03:36:33;;;;;;;3.97;3.55;;;;;;;9.55;100.00;102796.03;5116376;28;20031;-74
2022/08/07 03:39:06;;;;;;;3.67;3.08;;;;;;;9.49;100.00;102791.06;5116502;28;20027;-74
2022/08/07 03:41:32;;;;;;;4.07;2.90;;;;;;;9.47;100.00;102790.31;5117028;28;20102;-74
2022/08/07 03:43:58;;;;;;;4.82;3.63;;;;;;;9.44;100.00;102793.13;5116377;28;20040;-74
2022/08/07 03:46:25;;;;;;;4.93;4.00;;;;;;;9.41;100.00;102783.53;5116326;27;20038;-75
2022/08/07 03:48:51;;;;;;;3.53;3.10;;;;;;;9.41;100.00;102783.53;5116219;27;20039;-74
2022/08/07 03:51:19;;;;;;;5.07;3.30;;;;;;;9.39;100.00;102784.53;5116572;27;20063;-74
2022/08/07 03:53:44;;;;;;;4.50;3.60;;;;;;;9.39;100.00;102774.78;5115922;28;20431;-74
2022/08/07 03:56:10;;;;;;;3.50;2.83;;;;;;;9.34;100.00;102776.81;5116417;28;20028;-74
2022/08/07 03:58:37;;;;;;;3.78;3.30;;;;;;;9.28;100.00;102778.00;5116412;28;20060;-74
2022/08/07 04:01:03;;;;;;;3.55;3.25;;;;;;;9.32;100.00;102784.88;5115916;27;20073;-74
2022/08/07 04:03:30;;;;;;;4.85;3.30;;;;;;;9.32;100.00;102778.72;5116323;28;20039;-74
2022/08/07 04:05:55;;;;;;;5.10;3.20;;;;;;;9.27;100.00;102780.75;5115651;28;20058;-74
2022/08/07 04:08:22;;;;;;;4.00;3.10;;;;;;;9.23;100.00;102781.88;5115945;28;20035;-74
2022/08/07 04:10:49;;;;;;;4.45;3.40;;;;;;;9.22;100.00;102780.16;5115885;28;20055;-74
2022/08/07 04:13:15;;;;;;;4.25;3.22;;;;;;;9.25;100.00;102786.16;5115886;28;20032;-74
2022/08/07 04:15:42;;;;;;;5.20;3.33;;;;;;;9.23;100.00;102779.22;5116088;28;20027;-75
2022/08/07 04:18:07;;;;;;;4.53;3.35;;;;;;;9.23;100.00;102788.03;5116121;28;20448;-74
2022/08/07 04:20:33;;;;;;;5.63;4.22;;;;;;;9.25;100.00;102783.47;5115897;28;20063;-74
2022/08/07 04:22:59;;;;;;;4.85;3.75;;;;;;;9.25;100.00;102786.16;5115794;28;20122;-74
2022/08/07 04:25:25;;;;;;;5.30;3.90;;;;;;;9.22;100.00;102777.50;5114274;28;20032;-74
2022/08/07 04:27:51;;;;;;;4.30;3.40;;;;;;;9.20;100.00;102774.91;5115574;28;20063;-74
2022/08/07 04:30:17;;;;;;;5.10;3.35;;;;;;;9.20;100.00;102780.25;5115707;28;20482;-74
2022/08/07 04:32:43;;;;;;;3.90;3.25;;;;;;;9.20;100.00;102787.34;5115403;28;20103;-74
2022/08/07 04:35:09;;;;;;;4.72;3.58;;;;;;;9.22;100.00;102793.44;5115414;28;20028;-74
2022/08/07 04:37:35;;;;;;;3.97;3.30;;;;;;;9.24;100.00;102794.19;5115048;28;20485;-74
2022/08/07 04:40:01;;;;;;;4.65;3.65;;;;;;;9.24;100.00;102789.75;5115425;28;20027;-74
2022/08/07 04:42:29;;;;;;;4.05;3.28;;;;;;;9.27;100.00;102804.66;5115273;28;20059;-74
2022/08/07 04:44:57;;;;;;;3.53;2.92;;;;;;;9.26;100.00;102802.97;5115327;28;20032;-74
2022/08/07 04:47:41;;;;;;;3.25;2.58;;;;;;;9.27;100.00;102804.66;5115253;28;20130;-74
2022/08/07 04:50:17;;;;;;;5.05;4.32;;;;;;;9.29;100.00;102803.63;5115240;28;20548;-74
2022/08/07 04:52:50;;;;;;;4.80;4.20;;;;;;;9.37;100.00;102810.34;5115259;28;20089;-74
2022/08/07 04:55:33;;;;;;;5.93;3.20;;;;;;;9.39;100.00;102805.78;5115131;28;20028;-75
2022/08/07 04:57:59;;;;;;;3.70;2.80;;;;;;;9.37;100.00;102805.03;5115107;28;20058;-75
2022/08/07 05:00:39;;;;;;;3.70;3.08;;;;;;;9.37;100.00;102811.19;5114955;28;20353;-75
2022/08/07 05:03:23;;;;;;;5.05;3.92;;;;;;;9.41;100.00;102809.25;5114955;28;20461;-75
2022/08/07 05:05:58;;;;;;;4.80;3.33;;;;;;;9.44;100.00;102812.56;5113512;28;20039;-74
2022/08/07 05:08:36;;;;;;;3.88;2.80;;;;;;;9.49;100.00;102813.19;5115120;28;20031;-74
2022/08/07 05:11:10;;;;;;;4.80;2.78;;;;;;;9.51;100.00;102811.31;5114776;28;20040;-75
2022/08/07 05:14:05;;;;;;;4.97;3.25;;;;;;;9.58;100.00;102817.13;5115135;28;20043;-74
2022/08/07 05:16:33;;;;;;;4.85;3.20;;;;;;;9.63;100.00;102816.88;5115274;28;20468;-74
2022/08/07 05:19:11;;;;;;;3.25;2.72;;;;;;;9.67;100.00;102816.66;5114587;28;20044;-74
2022/08/07 05:21:41;;;;;;;4.53;3.63;;;;;;;9.74;100.00;102811.84;5114092;27;20031;-75
2022/08/07 05:24:10;;;;;;;3.50;3.20;;;;;;;9.81;100.00;102810.56;5114134;28;20416;-73
2022/08/07 05:26:37;;;;;;;3.22;2.80;;;;;;;9.85;100.00;102814.75;5114600;28;20464;-75
2022/08/07 05:29:08;;;;;;;3.38;2.80;;;;;;;9.93;100.00;102818.75;5114361;28;20461;-73
2022/08/07 05:31:38;;;;;;;4.22;3.33;;;;;;;10.01;100.00;102824.53;5114107;28;20473;-74
2022/08/07 05:34:07;;;;;;;4.40;3.38;;;;;;;10.11;100.00;102833.69;5114189;28;20038;-74
2022/08/07 05:36:33;;;;;;;3.17;2.92;;;;;;;10.18;100.00;102824.44;5114532;28;20457;-74
2022/08/07 05:39:00;;;;;;;3.63;2.70;;;;;;;10.23;100.00;102822.34;5114179;28;20073;-74
2022/08/07 05:41:26;;;;;;;3.42;2.90;;;;;;;10.30;100.00;102822.88;5114387;28;20031;-74
2022/08/07 05:43:54;;;;;;;4.38;3.13;;;;;;;10.39;100.00;102826.84;5114168;28;20492;-74
2022/08/07 05:46:21;;;;;;;3.47;2.92;;;;;;;10.47;100.00;102823.72;5114075;28;20034;-74
2022/08/07 05:48:51;;;;;;;3.60;3.25;;;;;;;10.54;100.00;102822.41;5113434;28;20136;-74
2022/08/07 05:51:18;;;;;;;4.63;3.10;;;;;;;10.62;100.00;102817.47;5114281;28;20046;-74
2022/08/07 05:53:44;;;;;;;5.72;3.00;;;;;;;10.70;100.00;102815.22;5113662;28;20031;-74
2022/08/07 05:56:11;;;;;;;3.40;2.90;;;;;;;10.80;100.00;102818.19;5113935;28;20055;-74
2022/08/07 05:58:38;;;;;;;4.72;3.10;;;;;;;10.90;100.00;102819.34;5114131;28;20047;-74
2022/08/07 06:01:06;;;;;;;3.45;2.67;;;;;;;11.02;100.00;102823.06;5113954;28;20492;-73
2022/08/07 06:03:34;;;;;;;5.78;3.85;;;;;;;11.15;100.00;102820.53;5113648;28;20460;-73
2022/08/07 06:06:00;;;;;;;4.43;3.83;;;;;;;11.27;100.00;102827.75;5113585;28;20035;-73
2022/08/07 06:08:26;;;;;;;4.13;3.00;;;;;;;11.43;100.00;102829.44;5114065;28;20470;-73
2022/08/07 06:10:52;;;;;;;6.90;4.65;;;;;;;11.61;100.00;102822.97;5113553;28;20134;-74
2022/08/07 06:13:18;;;;;;;4.68;4.03;;;;;;;11.84;100.00;102817.97;5113637;28;20080;-74
2022/08/07 06:15:47;;;;;;;5.72;4.70;;;;;;;12.07;100.00;102829.00;5112127;28;20052;-74
2022/08/07 06:18:13;;;;;;;6.40;4.85;;;;;;;12.26;100.00;102832.16;5113779;28;20115;-76
2022/08/07 06:20:39;;;;;;;10.95;5.00;;;;;;;12.44;100.00;102834.56;5113912;28;20035;-74
2022/08/07 06:23:07;;;;;;;10.05;4.95;;;;;;;12.57;100.00;102830.13;5113027;28;20032;-75
2022/08/07 06:25:34;;;;;;;7.47;4.45;;;;;;;12.72;100.00;102828.22;5113173;28;20366;-74
2022/08/07 06:28:04;;;;;;;6.35;4.82;;;;;;;12.90;100.00;102828.78;5113133;28;20217;-75
2022/08/07 06:30:30;;;;;;;6.18;4.90;;;;;;;13.01;100.00;102834.22;5111789;28;20119;-75
2022/08/07 06:32:55;;;;;;;6.25;4.45;;;;;;;13.18;100.00;102837.53;5112386;28;20063;-75
2022/08/07 06:35:20;;;;;;;5.95;4.57;;;;;;;13.32;100.00;102839.25;5113249;28;20074;-75
2022/08/07 06:37:46;;;;;;;7.13;5.10;;;;;;;13.43;100.00;102831.34;5112837;28;20032;-76
2022/08/07 06:40:11;;;;;;;5.72;4.35;;;;;;;13.57;100.00;102849.09;5113705;28;20496;-75
2022/08/07 06:42:39;;;;;;;6.97;4.85;;;;;;;13.66;100.00;102836.84;5111737;28;20054;-75
2022/08/07 06:45:11;;;;;;;6.75;4.45;;;;;;;13.81;100.00;102838.44;5113122;28;20040;-75
2022/08/07 06:47:36;;;;;;;5.95;4.70;;;;;;;13.95;100.00;102841.91;5112528;28;20365;-75
2022/08/07 06:50:03;;;;;;;6.63;4.47;;;;;;;14.07;100.00;102843.69;5113075;28;20032;-75
2022/08/07 06:52:33;;;;;;;7.85;5.18;;;;;;;14.21;100.00;102840.84;5113133;28;20035;-76
2022/08/07 06:55:00;;;;;;;4.95;4.40;;;;;;;14.33;99.46;102844.44;5113445;28;20039;-75
2022/08/07 06:57:30;;;;;;;7.05;4.60;;;;;;;14.48;97.21;102847.78;5113151;28;20028;-76
2022/08/07 06:59:56;;;;;;;5.18;4.68;;;;;;;14.58;95.65;102847.94;5112727;28;20076;-76
2022/08/07 07:02:24;;;;;;;8.80;5.05;;;;;;;14.69;93.55;102852.50;5113526;28;20032;-76
2022/08/07 07:04:49;;;;;;;9.73;5.20;;;;;;;14.80;89.59;102853.38;5112951;28;20028;-79
2022/08/07 07:07:15;;;;;;;8.45;4.88;;;;;;;14.94;88.14;102854.13;5112102;28;20032;-75
2022/08/07 07:09:48;;;;;;;6.25;4.82;;;;;;;15.13;90.10;102849.06;5113034;28;20055;-75
2022/08/07 07:12:26;;;;;;;4.97;4.40;;;;;;;15.28;89.90;102836.25;5113806;28;20031;-75
2022/08/07 07:15:19;;;;;;;5.95;4.57;;;;;;;15.43;87.62;102838.72;5113128;28;20088;-78
2022/08/07 07:17:47;;;;;;;6.22;4.57;;;;;;;15.59;85.00;102841.88;5110913;28;20031;-75
2022/08/07 07:20:20;;;;;;;5.55;4.22;;;;;;;15.73;82.91;102839.91;5111011;28;20051;-76
2022/08/07 07:22:47;;;;;;;5.78;4.60;;;;;;;15.85;81.49;102844.31;5112847;28;20035;-79
2022/08/07 07:25:15;;;;;;;9.27;4.32;;;;;;;15.93;81.11;102846.34;5094987;28;20097;-78
2022/08/07 07:27:56;;;;;;;4.70;3.20;;;;;;;16.03;78.67;102842.81;5094736;28;20110;-78
2022/08/07 07:30:28;;;;;;;6.22;3.70;;;;;;;16.18;76.67;102843.38;5113464;28;20023;-77
2022/08/07 07:32:57;;;;;;;4.30;3.33;;;;;;;16.29;77.79;102837.09;5112021;28;20358;-80
2022/08/07 07:35:23;;;;;;;7.20;3.72;;;;;;;16.36;74.03;102840.13;5117481;28;20088;-80
2022/08/07 07:37:50;;;;;;;4.18;3.13;;;;;;;16.49;76.93;102838.09;5112721;28;20115;-79
2022/08/07 07:40:19;;;;;;;3.65;2.75;;;;;;;16.61;74.40;102838.91;5112721;28;20035;-82
2022/08/07 07:42:46;;;;;;;5.03;3.17;;;;;;;16.73;70.70;102831.63;5112592;28;20465;-80
2022/08/07 07:45:15;;;;;;;4.25;2.95;;;;;;;16.89;72.51;102828.50;5115971;28;20102;-78
2022/08/07 07:47:43;;;;;;;3.47;2.17;;;;;;;17.06;72.28;102824.34;5116693;27;20027;-78
2022/08/07 07:50:11;;;;;;;8.38;3.08;;;;;;;17.24;68.89;102827.25;5116368;28;20059;-80
2022/08/07 07:52:39;;;;;;;7.97;2.30;;;;;;;17.38;70.00;102826.91;5116291;28;20484;-77
2022/08/07 07:55:07;;;;;;;4.05;2.75;;;;;;;17.61;68.01;102827.53;5115919;28;20041;-72
2022/08/07 07:57:34;;;;;;;5.75;2.28;;;;;;;17.74;63.95;102824.59;5116464;28;20032;-78
2022/08/07 08:00:01;;;;;;;4.72;2.50;;;;;;;17.83;65.14;102824.78;5115724;28;20397;-78
2022/08/07 08:02:29;;;;;;;4.03;2.30;;;;;;;17.98;66.24;102824.25;5116066;28;20031;-79
2022/08/07 08:04:55;;;;;;;3.25;2.20;;;;;;;18.16;64.84;102823.56;5116555;28;20036;-78
2022/08/07 08:07:23;;;;;;;4.82;2.50;;;;;;;18.25;62.68;102824.56;5116176;28;20042;-77
2022/08/07 08:09:51;;;;;;;4.45;2.45;;;;;;;18.39;63.28;102815.19;5115777;28;20106;-77
2022/08/07 08:12:17;;;;;;;5.38;2.30;;;;;;;18.48;61.17;102809.81;5115764;28;20398;-78
2022/08/07 08:14:43;;;;;;;3.63;2.30;;;;;;;18.63;62.42;102809.34;5117109;28;20084;-85
2022/08/07 08:17:11;;;;;;;4.13;2.50;;;;;;;18.93;60.94;102815.53;5117594;28;20042;-85
2022/08/07 08:19:38;;;;;;;4.45;2.17;;;;;;;19.15;57.35;102812.50;5118294;28;20070;-82
2022/08/07 08:27:39;;;;;;;4.80;2.10;;;;;;;19.93;57.20;102813.97;5116146;28;20046;-78
2022/08/07 08:30:07;;;;;;;7.72;2.20;;;;;;;20.23;54.39;102811.88;5115524;28;20035;-78
2022/08/07 08:32:47;;;;;;;24.48;2.95;;;;;;;20.50;50.89;102816.31;5115616;28;20521;-80
2022/08/07 08:35:18;;;;;;;3.47;1.95;;;;;;;20.70;49.77;102808.88;5115483;28;20028;-79
2022/08/07 08:37:45;;;;;;;;;;;;;;;21.09;48.57;102807.59;5116068;28;20127;-80
2022/08/07 08:40:21;;;;;;;1.75;1.63;;;;;;;21.57;47.96;102813.41;5115662;28;19908;-80
2022/08/07 08:43:22;;;;;;;2.97;1.83;;;;;;;22.00;47.78;102811.47;5115971;28;20024;-79
2022/08/07 08:46:21;;;;;;;3.58;1.85;;;;;;;22.24;44.67;102807.94;5062604;28;20058;-75
2022/08/07 08:49:03;;;;;;;3.88;1.80;;;;;;;22.56;46.36;102798.13;5115204;28;20118;-75
2022/08/07 08:52:06;;;;;;;4.70;2.15;;;;;;;22.97;44.85;102802.63;5114371;28;20341;-75
2022/08/07 08:54:48;;;;;;;4.35;2.13;;;;;;;22.89;45.32;102807.03;5103736;28;20126;-75
2022/08/07 08:57:25;;;;;;;6.05;2.20;;;;;;;22.79;44.77;102798.25;5114784;28;20111;-76
2022/08/07 09:00:00;;;;;;;3.88;1.90;;;;;;;22.82;44.75;102800.59;5115166;28;20373;-76
2022/08/07 09:02:28;;;;;;;5.47;2.20;;;;;;;22.94;44.07;102797.53;5115270;28;20448;-77
2022/08/07 09:05:03;;;;;;;2.83;1.73;;;;;;;23.13;43.33;102807.19;5114960;28;20031;-83
2022/08/07 09:07:48;;;;;;;3.78;2.10;;;;;;;23.56;43.58;102799.53;5114006;28;20086;-84
2022/08/07 09:10:24;;;;;;;2.40;1.83;;;;;;;24.04;41.38;102802.97;5114072;28;20031;-82
2022/08/07 09:13:16;;;;;;;3.38;2.30;;;;;;;24.32;42.39;102798.81;5115394;28;20031;-82
2022/08/07 09:15:50;;;;;;;3.65;1.88;;;;;;;25.31;40.73;102793.22;5116398;28;20044;-83
2022/08/07 09:18:40;;;;;;;2.20;1.92;;;;;;;26.49;36.40;102801.97;5115033;28;20038;-81
2022/08/07 09:21:27;;;;;;;6.03;1.98;;;;;;;26.92;37.39;102796.41;5114801;28;20051;-85
2022/08/07 09:24:26;;;;;;;4.45;2.00;;;;;;;27.68;35.30;102791.91;5115065;28;20027;-83
2022/08/07 09:27:32;;;;;;;2.72;1.50;;;;;;;28.71;33.74;102785.25;5116159;28;20042;-83
2022/08/07 09:30:06;;;;;;;2.78;1.70;;;;;;;29.65;32.94;102793.06;5115522;28;20028;-84
2022/08/07 09:32:52;;;;;;;2.53;1.70;;;;;;;29.84;30.74;102792.16;5114486;28;20110;-82
2022/08/07 09:35:35;;;;;;;4.03;1.80;;;;;;;29.83;30.68;102793.22;5114645;28;20027;-80
2022/08/07 09:38:06;;;;;;;2.83;1.70;;;;;;;29.87;31.23;102786.22;5115149;28;20465;-86
2022/08/07 09:40:36;;;;;;;;;;;;;;;29.73;30.70;102790.09;5115500;28;20035;-82
2022/08/07 09:43:32;;;;;;;7.10;2.25;;;;;;;29.95;30.44;102784.25;5114420;28;19911;-86
2022/08/07 09:46:27;;;;;;;2.65;1.65;;;;;;;30.21;29.65;102781.28;5115065;28;20032;-84
2022/08/07 09:49:23;;;;;;;3.15;1.98;;;;;;;30.41;29.30;102785.78;5114338;28;20069;-82
2022/08/07 09:52:20;;;;;;;6.13;1.65;;;;;;;29.88;30.85;102781.56;5114843;28;20023;-88
2022/08/07 09:54:53;;;;;;;4.18;1.60;;;;;;;30.20;30.63;102779.63;5113657;28;20365;-86
2022/08/07 09:58:26;;;;;;;6.63;1.67;;;;;;;30.33;29.31;102778.66;5114272;28;20028;-83
2022/08/07 10:01:03;;;;;;;3.25;1.52;;;;;;;30.43;29.20;102769.94;5042129;28;20147;-85
2022/08/07 10:03:39;;;;;;;2.55;1.52;;;;;;;30.75;30.08;102767.06;5051311;28;20029;-86
2022/08/07 10:06:42;;;;;;;3.15;1.77;;;;;;;31.09;29.00;102762.84;5102579;28;20047;-85
2022/08/07 10:09:29;;;;;;;3.30;1.50;;;;;;;31.60;28.29;102766.19;5114581;28;20024;-87
2022/08/07 10:12:01;;;;;;;3.25;1.83;;;;;;;31.12;29.22;102761.56;5114863;28;20392;-82
2022/08/07 10:14:45;;;;;;;2.00;1.30;;;;;;;31.13;27.23;102757.75;5114739;28;20326;-85
2022/08/07 10:17:30;;;;;;;4.72;1.92;;;;;;;30.61;27.45;102755.38;5114248;28;20028;-83
2022/08/07 10:20:23;;;;;;;2.67;1.63;;;;;;;29.59;28.23;102750.09;5114166;28;20050;-81
2022/08/07 10:23:23;;;;;;;2.60;1.80;;;;;;;30.03;27.75;102745.56;5112777;28;20023;-84
2022/08/07 10:25:54;;;;;;;2.38;1.30;;;;;;;29.76;27.83;102747.66;5113838;28;20031;-81
2022/08/07 10:28:38;;;;;;;5.35;1.55;;;;;;;29.54;29.22;102735.16;5114026;28;20043;-82
2022/08/07 10:31:06;;;;;;;5.40;1.85;;;;;;;30.44;27.48;102740.56;5113852;28;20028;-82
2022/08/07 10:33:50;;;;;;;2.45;1.50;;;;;;;30.34;26.95;102738.31;5113500;28;20024;-80
2022/08/07 10:36:24;;;;;;;2.55;1.40;;;;;;;30.64;27.15;102732.13;5113808;28;20103;-80
2022/08/07 10:38:59;;;;;;;4.78;2.20;;;;;;;31.32;26.39;102733.81;5113416;28;20027;-81
2022/08/07 10:41:33;;;;;;;1.98;1.30;;;;;;;30.99;25.54;102728.75;5113893;28;20038;-82
2022/08/07 10:44:15;;;;;;;4.72;1.30;;;;;;;31.18;25.74;102730.41;5114085;28;20024;-84
2022/08/07 10:46:52;;;;;;;3.63;1.25;;;;;;;30.72;26.54;102729.06;5113502;28;20024;-83
2022/08/07 10:49:38;;;;;;;2.00;1.20;;;;;;;30.72;25.21;102723.56;5113778;28;20457;-81
2022/08/07 10:52:22;;;;;;;2.00;1.23;;;;;;;31.03;25.81;102729.97;5113148;28;20067;-84
2022/08/07 10:55:02;;;;;;;1.30;1.15;;;;;;;31.03;26.13;102719.81;5113683;28;20463;-85
2022/08/07 10:57:47;;;;;;;1.33;1.20;;;;;;;30.97;24.86;102722.63;5114154;28;20354;-84
2022/08/07 11:00:18;;;;;;;2.53;1.17;;;;;;;30.66;25.63;102716.25;5113480;28;20068;-85
2022/08/07 11:02:58;;;;;;;1.52;1.05;;;;;;;30.45;24.00;102717.53;5113393;28;20342;-77
2022/08/07 11:05:53;;;;;;;1.65;1.00;;;;;;;30.45;24.62;102707.38;5113907;28;20055;-79
2022/08/07 11:08:27;;;;;;;3.17;1.20;;;;;;;30.75;25.16;102714.84;5113728;28;20388;-81
2022/08/07 11:11:16;;;;;;;4.95;1.20;;;;;;;30.85;24.70;102717.06;5113645;28;20028;-84
2022/08/07 11:13:44;;;;;;;1.95;1.20;;;;;;;31.15;25.64;102708.88;5113704;28;20032;-82
2022/08/07 11:16:47;;;;;;;2.05;1.17;;;;;;;31.67;24.15;102708.34;5112983;28;20384;-82
2022/08/07 11:19:34;;;;;;;4.95;1.27;;;;;;;32.14;23.63;102710.31;5063858;28;20047;-79
2022/08/07 11:22:26;;;;;;;3.33;1.40;;;;;;;31.80;24.17;102710.88;5117499;28;20027;-80
2022/08/07 11:25:06;;;;;;;2.72;1.48;;;;;;;31.71;24.44;102714.19;5117700;28;20031;-81
2022/08/07 11:27:43;;;;;;;2.63;1.27;;;;;;;31.86;24.87;102702.72;5117228;28;20020;-83
2022/08/07 11:30:16;;;;;;;2.63;1.40;;;;;;;32.05;24.50;102700.69;5115819;28;20038;-82
2022/08/07 11:33:01;;;;;;;4.22;1.75;;;;;;;31.95;23.55;102704.91;5117036;28;20492;-82
2022/08/07 11:35:42;;;;;;;3.58;1.17;;;;;;;31.56;23.29;102695.38;5117872;28;20028;-83
2022/08/07 11:38:25;;;;;;;6.43;1.60;;;;;;;31.11;25.99;102702.16;5117913;28;20349;-76
2022/08/07 11:41:02;;;;;;;4.55;1.60;;;;;;;31.27;25.24;102693.25;5117118;28;20100;-84
2022/08/07 11:43:31;;;;;;;3.17;1.25;;;;;;;31.24;24.98;102695.66;5116481;28;20176;-75
2022/08/07 11:46:13;;;;;;;3.08;1.40;;;;;;;31.11;25.00;102692.03;5116928;28;20040;-75
2022/08/07 11:49:06;;;;;;;2.22;1.42;;;;;;;30.66;25.41;102691.53;5117013;28;20159;-78
2022/08/07 11:51:57;;;;;;;2.28;1.33;;;;;;;30.94;25.79;102688.22;5116665;28;20046;-80